createdAt,value
2017-06-15T21:50:48.736Z,63.00
2017-06-15T21:53:16.037Z,62.90
2017-06-15T21:55:43.317Z,62.90
2017-06-15T21:58:10.595Z,62.90
2017-06-15T22:03:52.095Z,60.00
2017-06-15T22:06:19.379Z,66.20
2017-06-15T22:08:46.696Z,70.30
2017-06-15T22:11:13.982Z,72.50
2017-06-15T22:13:41.253Z,73.70
2017-06-15T22:16:08.522Z,74.40
2017-06-15T22:18:37.926Z,74.80
2017-06-15T22:21:07.397Z,75.00
2017-06-15T22:23:34.787Z,75.10
2017-06-15T22:26:02.463Z,75.20
2017-06-15T22:28:30.429Z,75.40
2017-06-15T22:30:57.833Z,75.40
2017-06-15T22:33:25.124Z,75.60
2017-06-15T22:35:52.397Z,75.70
2017-06-15T22:38:20.213Z,75.70
2017-06-15T22:40:47.544Z,75.80
2017-06-15T22:43:15.128Z,75.70
2017-06-15T22:45:42.423Z,75.90
2017-06-15T22:48:10.033Z,75.90
2017-06-15T22:50:37.459Z,75.70
2017-06-15T22:53:05.008Z,75.90
2017-06-15T22:55:32.294Z,75.90
2017-06-15T22:57:59.555Z,75.70
2017-06-15T23:00:26.850Z,75.90
2017-06-15T23:02:54.131Z,75.90
2017-06-15T23:05:21.417Z,76.00
2017-06-15T23:07:49.387Z,76.00
2017-06-15T23:10:17.149Z,75.80
2017-06-15T23:12:45.635Z,75.80
2017-06-15T23:15:13.390Z,75.90
2017-06-15T23:17:41.084Z,75.70
2017-06-15T23:20:09.001Z,75.70
2017-06-15T23:22:36.928Z,75.60
2017-06-15T23:25:04.804Z,75.40
2017-06-15T23:27:32.190Z,75.40
2017-06-15T23:29:59.482Z,75.40
2017-06-15T23:32:26.745Z,75.50
2017-06-15T23:34:54.032Z,75.50
2017-06-15T23:37:21.323Z,75.50
2017-06-15T23:39:48.604Z,75.60
2017-06-15T23:42:15.877Z,75.70
2017-06-15T23:44:43.151Z,75.80
2017-06-15T23:47:10.444Z,75.70
2017-06-15T23:49:37.727Z,75.70
2017-06-15T23:52:05.019Z,75.70
2017-06-15T23:54:32.291Z,75.60
2017-06-15T23:56:59.583Z,75.70
2017-06-15T23:59:26.846Z,75.90
